Terminal Aerodrome Forecast
Issued by NWS

Home | Current Version | Previous Version | Text Only | Print | Product List | Glossary On
Versions: 1 2 3 4 5 6 7 8 9 10 11 12 13 14 15 16
000
FTUS43 KEAX 192300 RRA
TAFSTJ
TAF
KSTJ 192342Z 2000/2024 05011KT P6SM OVC050
     FM200400 07012KT P6SM -RA OVC030
     FM200800 05013KT 5SM RA OVC015
     FM201100 06011KT 4SM -RA BR OVC007
     FM201800 03010KT P6SM VCSH OVC030=

USA.gov is the U.S. government's official web portal to all federal, state and local government web resources and services.